createdAt,value
2018-11-29T00:00:40.713Z,7.03
2018-11-29T00:03:10.680Z,7.04
2018-11-29T00:05:39.550Z,7.07
2018-11-29T00:08:08.134Z,7.11
2018-11-29T00:10:36.993Z,7.13
2018-11-29T00:13:05.848Z,7.14
2018-11-29T00:15:34.712Z,7.16
2018-11-29T00:18:03.530Z,7.17
2018-11-29T00:20:32.706Z,7.17
2018-11-29T00:23:01.229Z,7.22
2018-11-29T00:25:36.026Z,7.23
2018-11-29T00:28:04.573Z,7.27
2018-11-29T00:30:33.106Z,7.29
2018-11-29T00:33:01.643Z,7.31
2018-11-29T00:35:30.298Z,7.34
2018-11-29T00:37:58.828Z,7.37
2018-11-29T00:40:27.378Z,7.38
2018-11-29T00:42:56.018Z,7.37
2018-11-29T00:45:24.870Z,7.38
2018-11-29T00:47:54.308Z,7.38
2018-11-29T00:50:22.874Z,7.37
2018-11-29T00:52:52.055Z,7.40
2018-11-29T00:55:25.659Z,7.41
2018-11-29T00:57:54.530Z,7.39
2018-11-29T01:00:24.961Z,7.36
2018-11-29T01:02:53.668Z,7.36
2018-11-29T01:05:22.292Z,7.36
2018-11-29T01:07:50.913Z,7.37
2018-11-29T01:10:20.011Z,7.39
2018-11-29T01:12:49.094Z,7.35
2018-11-29T01:15:19.984Z,7.35
2018-11-29T01:17:49.382Z,7.34
2018-11-29T01:20:18.806Z,7.31
2018-11-29T01:22:47.501Z,7.30
2018-11-29T01:25:16.403Z,7.30
2018-11-29T01:27:46.301Z,7.32
2018-11-29T01:30:17.185Z,7.34
2018-11-29T01:32:45.719Z,7.34
2018-11-29T01:35:15.329Z,7.35
2018-11-29T01:37:43.977Z,7.37
2018-11-29T01:40:17.234Z,7.38
2018-11-29T01:42:47.620Z,7.42
2018-11-29T01:45:16.174Z,7.45
2018-11-29T01:47:44.721Z,7.45
2018-11-29T01:50:13.287Z,7.47
2018-11-29T01:52:41.837Z,7.47
2018-11-29T01:55:10.640Z,7.49
2018-11-29T01:57:39.240Z,7.50
2018-11-29T02:00:17.104Z,7.52
2018-11-29T02:02:47.848Z,7.52
2018-11-29T02:05:16.426Z,7.56
2018-11-29T02:07:44.963Z,7.54
2018-11-29T02:10:19.788Z,7.60
2018-11-29T02:12:48.298Z,7.59
2018-11-29T02:15:16.869Z,7.59
2018-11-29T02:17:45.423Z,7.58
2018-11-29T02:20:19.099Z,7.61
2018-11-29T02:22:48.282Z,7.59
2018-11-29T02:25:16.937Z,7.60
2018-11-29T02:27:45.485Z,7.60
2018-11-29T02:30:17.595Z,7.60
2018-11-29T02:32:46.348Z,7.63
2018-11-29T02:35:14.968Z,7.64
2018-11-29T02:37:43.521Z,7.67
2018-11-29T02:40:14.009Z,7.63
2018-11-29T02:42:42.902Z,7.67
2018-11-29T02:45:13.754Z,7.66
2018-11-29T02:47:42.344Z,7.68
2018-11-29T02:50:11.668Z,7.69
2018-11-29T02:52:40.284Z,7.71
2018-11-29T02:55:10.065Z,7.71
2018-11-29T02:57:38.755Z,7.71
2018-11-29T03:00:16.859Z,7.73
2018-11-29T03:02:45.389Z,7.75
2018-11-29T03:05:14.141Z,7.75
2018-11-29T03:07:42.809Z,7.76
2018-11-29T03:10:13.374Z,7.76
2018-11-29T03:12:42.297Z,7.77
2018-11-29T03:15:12.044Z,7.76
2018-11-29T03:17:40.696Z,7.74
2018-11-29T03:20:12.318Z,7.74
2018-11-29T03:22:40.924Z,7.78
2018-11-29T03:25:15.484Z,7.79
2018-11-29T03:27:44.351Z,7.80
2018-11-29T03:30:14.804Z,7.82
2018-11-29T03:32:43.436Z,7.81
2018-11-29T03:35:12.845Z,7.83
2018-11-29T03:37:41.480Z,7.84
2018-11-29T03:40:11.503Z,7.87
2018-11-29T03:42:40.326Z,7.86
2018-11-29T03:45:11.012Z,7.87
2018-11-29T03:47:39.975Z,7.88
2018-11-29T03:50:13.062Z,7.88
2018-11-29T03:52:41.678Z,7.88
2018-11-29T03:55:10.980Z,7.88
2018-11-29T03:57:40.434Z,7.89
2018-11-29T04:00:14.994Z,7.90
2018-11-29T04:02:43.834Z,7.92
2018-11-29T04:05:12.612Z,7.91
2018-11-29T04:07:41.369Z,7.92
2018-11-29T04:10:12.060Z,7.88
2018-11-29T04:12:40.692Z,7.92
2018-11-29T04:15:11.388Z,7.93
2018-11-29T04:17:40.935Z,7.95
2018-11-29T04:20:10.699Z,7.95
2018-11-29T04:22:39.286Z,7.95
2018-11-29T04:25:09.594Z,7.97
2018-11-29T04:27:38.207Z,7.98
2018-11-29T04:30:09.345Z,7.99
2018-11-29T04:32:37.903Z,8.02
2018-11-29T04:35:08.221Z,8.04
2018-11-29T04:37:36.837Z,8.03
2018-11-29T04:40:06.209Z,8.05
2018-11-29T04:42:34.824Z,8.03
2018-11-29T04:45:03.415Z,8.04
2018-11-29T04:47:32.102Z,8.08
2018-11-29T04:50:00.664Z,8.07
2018-11-29T04:52:29.323Z,8.09
2018-11-29T04:54:58.014Z,8.10
2018-11-29T04:57:26.661Z,8.11
2018-11-29T04:59:55.249Z,8.13
2018-11-29T05:02:23.888Z,8.13
2018-11-29T05:04:52.445Z,8.16
2018-11-29T05:07:20.970Z,8.18
2018-11-29T05:09:49.609Z,8.19
2018-11-29T05:12:18.166Z,8.17
2018-11-29T05:14:46.932Z,8.21
2018-11-29T05:17:15.482Z,8.20
2018-11-29T05:19:44.185Z,8.20
2018-11-29T05:22:12.888Z,8.23
2018-11-29T05:24:41.417Z,8.25
2018-11-29T05:27:10.166Z,8.24
2018-11-29T05:29:38.763Z,8.26
2018-11-29T05:32:07.341Z,8.27
2018-11-29T05:34:36.007Z,8.27
2018-11-29T05:37:04.739Z,8.27
2018-11-29T05:39:33.323Z,8.27
2018-11-29T05:42:01.872Z,8.30
2018-11-29T05:44:30.637Z,8.29
2018-11-29T05:46:59.219Z,8.32
2018-11-29T05:49:28.063Z,8.34
2018-11-29T05:51:56.670Z,8.35
2018-11-29T05:54:31.778Z,8.37
2018-11-29T05:57:00.375Z,8.36
2018-11-29T05:59:28.978Z,8.37
2018-11-29T06:01:57.657Z,8.36
2018-11-29T06:04:26.210Z,8.38
2018-11-29T06:06:54.847Z,8.38
2018-11-29T06:09:23.444Z,8.39
2018-11-29T06:11:52.168Z,8.39
2018-11-29T06:14:20.751Z,8.44
2018-11-29T06:16:49.304Z,8.45
2018-11-29T06:19:17.896Z,8.45
2018-11-29T06:21:46.513Z,8.48
2018-11-29T06:24:15.038Z,8.49
2018-11-29T06:26:43.669Z,8.49
2018-11-29T06:29:12.303Z,8.52
2018-11-29T06:31:40.927Z,8.54
2018-11-29T06:34:09.512Z,8.55
2018-11-29T06:36:38.138Z,8.56
2018-11-29T06:39:09.169Z,8.57
2018-11-29T06:41:37.767Z,8.58
2018-11-29T06:44:06.514Z,8.58
2018-11-29T06:46:35.165Z,8.61
2018-11-29T06:49:03.778Z,8.64
2018-11-29T06:51:32.439Z,8.63
2018-11-29T06:54:01.026Z,8.64
2018-11-29T06:56:29.621Z,8.65
2018-11-29T06:58:58.257Z,8.65
2018-11-29T07:01:26.961Z,8.62
2018-11-29T07:03:55.494Z,8.63
2018-11-29T07:06:24.034Z,8.64
2018-11-29T07:08:52.804Z,8.63
2018-11-29T07:11:21.381Z,8.61
2018-11-29T07:13:49.964Z,8.63
2018-11-29T07:16:18.654Z,8.59
2018-11-29T07:18:47.238Z,8.61
2018-11-29T07:21:26.946Z,8.61
2018-11-29T07:23:55.987Z,8.59
2018-11-29T07:26:24.699Z,8.61
2018-11-29T07:28:53.655Z,8.61
2018-11-29T07:31:22.217Z,8.63
2018-11-29T07:33:51.817Z,8.63
2018-11-29T07:36:20.398Z,8.62
2018-11-29T07:38:49.009Z,8.63
2018-11-29T07:41:17.652Z,8.66
2018-11-29T07:43:46.214Z,8.65
2018-11-29T07:46:14.875Z,8.67
2018-11-29T07:48:43.501Z,8.67
2018-11-29T07:51:12.085Z,8.68
2018-11-29T07:53:40.703Z,8.66
2018-11-29T07:56:09.273Z,8.66
2018-11-29T07:58:38.007Z,8.65
2018-11-29T08:01:07.346Z,8.63
2018-11-29T08:03:36.001Z,8.63
2018-11-29T08:06:04.651Z,8.66
2018-11-29T08:08:33.216Z,8.63
2018-11-29T08:11:01.903Z,8.63
2018-11-29T08:13:31.644Z,8.68
2018-11-29T08:16:00.447Z,8.67
2018-11-29T08:18:29.612Z,8.70
2018-11-29T08:20:58.189Z,8.66
2018-11-29T08:23:26.753Z,8.64
2018-11-29T08:25:55.539Z,8.63
2018-11-29T08:28:24.191Z,8.63
2018-11-29T08:30:52.866Z,8.63
2018-11-29T08:33:21.661Z,8.63
2018-11-29T08:35:50.277Z,8.64
2018-11-29T08:38:18.864Z,8.61
2018-11-29T08:40:47.457Z,8.60
2018-11-29T08:43:16.123Z,8.63
2018-11-29T08:45:44.641Z,8.62
2018-11-29T08:48:13.212Z,8.62
2018-11-29T08:50:41.953Z,8.64
2018-11-29T08:53:10.579Z,8.62
2018-11-29T08:55:39.129Z,8.63
2018-11-29T08:58:07.719Z,8.64
2018-11-29T09:00:36.281Z,8.67
2018-11-29T09:03:04.866Z,8.70
2018-11-29T09:05:34.102Z,8.72
2018-11-29T09:08:02.641Z,8.72
2018-11-29T09:10:31.771Z,8.75
2018-11-29T09:12:59.840Z,8.78
2018-11-29T09:15:28.378Z,8.80
2018-11-29T09:17:57.003Z,8.79
2018-11-29T09:20:25.814Z,8.83
2018-11-29T09:22:54.496Z,8.82
2018-11-29T09:25:23.579Z,8.82
2018-11-29T09:27:52.212Z,8.82
2018-11-29T09:30:22.423Z,8.84
2018-11-29T09:32:52.215Z,8.84
2018-11-29T09:35:20.821Z,8.86
2018-11-29T09:37:49.930Z,8.85
2018-11-29T09:40:19.007Z,8.86
2018-11-29T09:42:47.770Z,8.85
2018-11-29T09:45:20.203Z,8.89
2018-11-29T09:47:50.834Z,8.90
2018-11-29T09:50:19.595Z,8.87
2018-11-29T09:52:48.217Z,8.86
2018-11-29T09:55:17.591Z,8.86
2018-11-29T09:57:46.885Z,8.87
2018-11-29T10:00:32.391Z,8.90
2018-11-29T10:03:06.669Z,8.93
2018-11-29T10:05:35.281Z,8.93
2018-11-29T10:08:03.845Z,8.95
2018-11-29T10:10:32.388Z,8.98
2018-11-29T10:13:01.085Z,9.02
2018-11-29T10:15:29.698Z,9.06
2018-11-29T10:17:58.302Z,9.07
2018-11-29T10:20:26.900Z,9.09
2018-11-29T10:22:55.470Z,9.09
2018-11-29T10:25:24.029Z,9.11
2018-11-29T10:27:55.341Z,9.15
2018-11-29T10:30:28.613Z,9.14
2018-11-29T10:32:57.264Z,9.18
2018-11-29T10:35:26.179Z,9.21
2018-11-29T10:37:54.828Z,9.22
2018-11-29T10:40:23.410Z,9.23
2018-11-29T10:42:52.127Z,9.24
2018-11-29T10:45:21.143Z,9.24
2018-11-29T10:47:52.823Z,9.27
2018-11-29T10:50:21.047Z,9.26
2018-11-29T10:52:49.609Z,9.24
2018-11-29T10:55:19.063Z,9.21
2018-11-29T10:57:47.645Z,9.23
2018-11-29T11:00:28.802Z,9.24
2018-11-29T11:03:04.296Z,9.23
2018-11-29T11:05:33.116Z,9.22
2018-11-29T11:08:07.894Z,9.24
2018-11-29T11:10:30.315Z,9.24
2018-11-29T11:12:58.857Z,9.25
2018-11-29T11:15:27.389Z,9.26
2018-11-29T11:17:56.007Z,9.25
2018-11-29T11:20:24.603Z,9.31
2018-11-29T11:22:53.190Z,9.32
2018-11-29T11:25:21.789Z,9.35
2018-11-29T11:27:50.331Z,9.33
2018-11-29T11:30:20.142Z,9.33
2018-11-29T11:32:52.506Z,9.34
2018-11-29T11:35:21.057Z,9.33
2018-11-29T11:37:49.622Z,9.33
2018-11-29T11:40:18.365Z,9.35
2018-11-29T11:42:47.375Z,9.36
2018-11-29T11:45:18.112Z,9.38
2018-11-29T11:47:46.792Z,9.38
2018-11-29T11:50:20.544Z,9.40
2018-11-29T11:52:49.621Z,9.41
2018-11-29T11:55:19.275Z,9.47
2018-11-29T11:57:47.456Z,9.50
2018-11-29T12:00:19.548Z,9.53
2018-11-29T12:02:49.471Z,9.54
2018-11-29T12:05:18.021Z,9.57
2018-11-29T12:07:46.642Z,9.59
2018-11-29T12:10:15.970Z,9.59
2018-11-29T12:12:44.669Z,9.59
2018-11-29T12:15:14.054Z,9.57
2018-11-29T12:17:43.919Z,9.59
2018-11-29T12:20:14.836Z,9.59
2018-11-29T12:22:43.429Z,9.62
2018-11-29T12:25:13.174Z,9.61
2018-11-29T12:27:41.717Z,9.66
2018-11-29T12:30:18.927Z,9.65
2018-11-29T12:32:47.469Z,9.68
2018-11-29T12:35:16.395Z,9.69
2018-11-29T12:37:45.062Z,9.72
2018-11-29T12:40:14.876Z,9.71
2018-11-29T12:42:43.389Z,9.75
2018-11-29T12:45:12.957Z,9.77
2018-11-29T12:47:41.649Z,9.80
2018-11-29T12:50:17.447Z,9.81
2018-11-29T12:52:46.077Z,9.86
2018-11-29T12:55:15.594Z,9.85
2018-11-29T12:57:44.437Z,9.87
2018-11-29T13:00:14.186Z,9.92
2018-11-29T13:03:00.496Z,9.92
2018-11-29T13:05:29.368Z,9.95
2018-11-29T13:07:57.972Z,9.96
2018-11-29T13:10:27.641Z,9.95
2018-11-29T13:12:56.293Z,9.97
2018-11-29T13:15:27.195Z,9.94
2018-11-29T13:17:56.421Z,9.91
2018-11-29T13:20:25.013Z,9.92
2018-11-29T13:22:53.696Z,9.89
2018-11-29T13:25:23.448Z,9.91
2018-11-29T13:27:52.070Z,9.90
2018-11-29T13:30:21.562Z,9.88
2018-11-29T13:32:52.392Z,9.87
2018-11-29T13:35:27.465Z,9.89
2018-11-29T13:38:01.333Z,9.90
2018-11-29T13:40:29.881Z,9.88
2018-11-29T13:42:58.791Z,9.91
2018-11-29T13:45:27.293Z,9.93
2018-11-29T13:47:55.870Z,9.93
2018-11-29T13:50:24.572Z,9.94
2018-11-29T13:52:53.110Z,9.94
2018-11-29T13:55:21.673Z,9.94
2018-11-29T13:57:50.793Z,9.92
2018-11-29T14:00:20.342Z,9.95
2018-11-29T14:02:53.170Z,9.96
2018-11-29T14:05:21.747Z,9.95
2018-11-29T14:07:50.483Z,9.96
2018-11-29T14:10:21.137Z,9.95
2018-11-29T14:12:51.861Z,9.94
2018-11-29T14:15:21.606Z,9.93
2018-11-29T14:17:50.150Z,9.96
2018-11-29T14:20:18.710Z,9.94
2018-11-29T14:22:47.509Z,9.94
2018-11-29T14:25:17.041Z,9.96
2018-11-29T14:27:47.295Z,9.95
2018-11-29T14:30:17.926Z,9.93
2018-11-29T14:32:46.538Z,9.92
2018-11-29T14:35:15.121Z,9.97
2018-11-29T14:37:43.706Z,9.98
2018-11-29T14:40:16.536Z,9.94
2018-11-29T14:42:45.110Z,9.94
2018-11-29T14:45:15.038Z,9.94
2018-11-29T14:47:43.619Z,9.92
2018-11-29T14:50:18.026Z,9.93
2018-11-29T14:52:47.025Z,9.95
2018-11-29T14:55:15.599Z,9.99
2018-11-29T14:57:44.212Z,10.02
2018-11-29T15:00:13.431Z,10.02
2018-11-29T15:02:42.398Z,10.06
2018-11-29T15:05:28.276Z,10.07
2018-11-29T15:07:56.940Z,10.05
2018-11-29T15:10:25.472Z,10.04
2018-11-29T15:12:54.096Z,10.05
2018-11-29T15:15:22.728Z,10.03
2018-11-29T15:17:52.464Z,10.04
2018-11-29T15:20:22.850Z,10.07
2018-11-29T15:22:51.425Z,10.08
2018-11-29T15:25:20.021Z,10.10
2018-11-29T15:27:48.598Z,10.12
2018-11-29T15:30:18.372Z,10.12
2018-11-29T15:32:46.922Z,10.11
2018-11-29T15:35:15.596Z,10.13
2018-11-29T15:37:44.317Z,10.14
2018-11-29T15:40:16.794Z,10.14
2018-11-29T15:42:52.103Z,10.13
2018-11-29T15:45:22.877Z,10.11
2018-11-29T15:47:51.837Z,10.12
2018-11-29T15:50:20.525Z,10.14
2018-11-29T15:52:49.183Z,10.18
2018-11-29T15:55:18.844Z,10.15
2018-11-29T15:57:48.490Z,10.18
2018-11-29T16:00:34.012Z,10.18
2018-11-29T16:03:05.318Z,10.18
2018-11-29T16:05:33.853Z,10.18
2018-11-29T16:08:02.435Z,10.15
2018-11-29T16:10:31.157Z,10.12
2018-11-29T16:12:59.716Z,10.12
2018-11-29T16:15:28.292Z,10.10
2018-11-29T16:17:56.931Z,10.13
2018-11-29T16:20:28.537Z,10.15
2018-11-29T16:22:57.152Z,10.16
2018-11-29T16:25:25.726Z,10.20
2018-11-29T16:27:54.306Z,10.19
2018-11-29T16:30:28.315Z,10.18
2018-11-29T16:32:58.478Z,10.18
2018-11-29T16:35:27.106Z,10.16
2018-11-29T16:37:55.697Z,10.13
2018-11-29T16:40:30.917Z,10.17
2018-11-29T16:42:59.432Z,10.18
2018-11-29T16:45:28.034Z,10.22
2018-11-29T16:47:56.615Z,10.21
2018-11-29T16:50:25.330Z,10.21
2018-11-29T16:52:53.921Z,10.22
2018-11-29T16:55:22.605Z,10.19
2018-11-29T16:57:53.242Z,10.20
2018-11-29T17:00:22.429Z,10.18
2018-11-29T17:02:51.221Z,10.17
2018-11-29T17:05:20.002Z,10.18
2018-11-29T17:07:48.572Z,10.15
2018-11-29T17:10:18.289Z,10.14
2018-11-29T17:12:49.562Z,10.07
2018-11-29T17:15:18.953Z,10.04
2018-11-29T17:17:47.573Z,10.00
2018-11-29T17:20:17.999Z,9.97
2018-11-29T17:22:46.596Z,10.00
2018-11-29T17:25:15.234Z,9.95
2018-11-29T17:27:43.808Z,9.87
2018-11-29T17:30:22.129Z,9.85
2018-11-29T17:32:52.029Z,9.83
2018-11-29T17:35:20.634Z,9.81
2018-11-29T17:37:49.386Z,9.77
2018-11-29T17:40:18.985Z,9.73
2018-11-29T17:42:47.554Z,9.71
2018-11-29T17:45:18.414Z,9.67
2018-11-29T17:47:47.273Z,9.66
2018-11-29T17:50:21.124Z,9.61
2018-11-29T17:52:49.674Z,9.57
2018-11-29T17:55:18.691Z,9.55
2018-11-29T17:57:47.228Z,9.52
2018-11-29T18:00:21.889Z,9.52
2018-11-29T18:02:50.460Z,9.49
2018-11-29T18:05:19.061Z,9.47
2018-11-29T18:07:47.622Z,9.47
2018-11-29T18:10:18.697Z,9.46
2018-11-29T18:12:49.685Z,9.45
2018-11-29T18:15:21.659Z,9.39
2018-11-29T18:17:50.251Z,9.42
2018-11-29T18:20:18.802Z,9.41
2018-11-29T18:22:47.343Z,9.46
2018-11-29T18:25:16.496Z,9.46
2018-11-29T18:27:50.409Z,9.46
2018-11-29T18:30:20.218Z,9.46
2018-11-29T18:32:48.765Z,9.46
2018-11-29T18:35:17.303Z,9.47
2018-11-29T18:37:45.927Z,9.48
2018-11-29T18:40:17.648Z,9.53
2018-11-29T18:42:47.337Z,9.51
2018-11-29T18:45:17.688Z,9.52
2018-11-29T18:47:48.283Z,9.51
2018-11-29T18:51:22.951Z,9.54
2018-11-29T18:53:51.530Z,9.54
2018-11-29T18:56:20.176Z,9.54
2018-11-29T18:58:48.860Z,9.52
2018-11-29T19:01:17.406Z,9.55
2018-11-29T19:03:45.924Z,9.55
2018-11-29T19:06:14.611Z,9.56
2018-11-29T19:08:43.182Z,9.55
2018-11-29T19:11:11.782Z,9.59
2018-11-29T19:13:40.301Z,9.58
2018-11-29T19:16:08.982Z,9.58
2018-11-29T19:18:37.559Z,9.59
2018-11-29T19:21:06.516Z,9.59
2018-11-29T19:23:35.285Z,9.62
2018-11-29T19:26:03.741Z,9.62
2018-11-29T19:28:32.381Z,9.62
2018-11-29T19:31:00.916Z,9.66
2018-11-29T19:33:29.481Z,9.66
2018-11-29T19:35:58.290Z,9.65
2018-11-29T19:38:26.990Z,9.61
2018-11-29T19:40:55.660Z,9.61
2018-11-29T19:43:24.278Z,9.58
2018-11-29T19:45:52.897Z,9.58
2018-11-29T19:48:21.607Z,9.60
2018-11-29T19:50:50.340Z,9.60
2018-11-29T19:53:23.388Z,9.58
2018-11-29T19:55:54.616Z,9.57
2018-11-29T19:58:23.193Z,9.56
2018-11-29T20:00:51.732Z,9.55
2018-11-29T20:03:20.387Z,9.56
2018-11-29T20:05:49.039Z,9.58
2018-11-29T20:08:17.616Z,9.57
2018-11-29T20:10:46.330Z,9.56
2018-11-29T20:13:15.464Z,9.55
2018-11-29T20:15:45.905Z,9.52
2018-11-29T20:18:14.917Z,9.52
2018-11-29T20:20:43.531Z,9.53
2018-11-29T20:23:12.767Z,9.53
2018-11-29T20:25:48.522Z,9.53
2018-11-29T20:28:17.083Z,9.51
2018-11-29T20:30:45.684Z,9.50
2018-11-29T20:33:14.264Z,9.47
2018-11-29T20:35:42.903Z,9.49
2018-11-29T20:38:11.413Z,9.51
2018-11-29T20:40:41.771Z,9.50
2018-11-29T20:43:10.287Z,9.49
2018-11-29T20:45:48.153Z,9.51
2018-11-29T20:48:19.020Z,9.50
2018-11-29T20:50:47.967Z,9.53
2018-11-29T20:53:18.736Z,9.50
2018-11-29T20:55:47.363Z,9.55
2018-11-29T20:58:15.906Z,9.53
2018-11-29T21:00:44.568Z,9.52
2018-11-29T21:03:13.080Z,9.56
2018-11-29T21:05:42.831Z,9.56
2018-11-29T21:08:12.074Z,9.55
2018-11-29T21:10:40.661Z,9.56
2018-11-29T21:13:09.293Z,9.56
2018-11-29T21:15:39.216Z,9.54
2018-11-29T21:18:09.145Z,9.55
2018-11-29T21:20:37.932Z,9.56
2018-11-29T21:23:08.233Z,9.58
2018-11-29T21:25:36.802Z,9.59
2018-11-29T21:28:06.263Z,9.57
2018-11-29T21:30:34.852Z,9.56
2018-11-29T21:33:03.475Z,9.60
2018-11-29T21:35:32.021Z,9.59
2018-11-29T21:38:01.224Z,9.62
2018-11-29T21:40:31.859Z,9.65
2018-11-29T21:43:00.704Z,9.66
2018-11-29T21:45:29.478Z,9.66
2018-11-29T21:47:58.013Z,9.66
2018-11-29T21:50:26.567Z,9.67
2018-11-29T21:52:55.116Z,9.67
2018-11-29T21:55:23.725Z,9.69
2018-11-29T21:57:52.539Z,9.70
2018-11-29T22:00:22.088Z,9.70
2018-11-29T22:02:58.481Z,9.74
2018-11-29T22:05:27.038Z,9.71
2018-11-29T22:07:55.584Z,9.70
2018-11-29T22:10:24.197Z,9.69
2018-11-29T22:12:52.813Z,9.68
2018-11-29T22:15:21.430Z,9.70
2018-11-29T22:18:23.021Z,9.68
2018-11-29T22:21:01.512Z,9.70
2018-11-29T22:23:30.493Z,9.66
2018-11-29T22:26:00.162Z,9.61
2018-11-29T22:28:29.113Z,9.60
2018-11-29T22:30:57.642Z,9.58
2018-11-29T22:33:26.207Z,9.58
2018-11-29T22:35:54.767Z,9.59
2018-11-29T22:38:23.362Z,9.58
2018-11-29T22:40:52.261Z,9.56
2018-11-29T22:43:20.814Z,9.56
2018-11-29T22:45:49.438Z,9.55
2018-11-29T22:48:18.059Z,9.54
2018-11-29T22:50:46.625Z,9.52
2018-11-29T22:53:15.197Z,9.51
2018-11-29T22:55:44.085Z,9.52
2018-11-29T22:58:12.664Z,9.48
2018-11-29T23:00:46.760Z,9.48
2018-11-29T23:03:15.270Z,9.42
2018-11-29T23:05:44.779Z,9.39
2018-11-29T23:08:13.407Z,9.39
2018-11-29T23:10:41.992Z,9.35
2018-11-29T23:13:10.490Z,9.36
2018-11-29T23:15:38.996Z,9.32
2018-11-29T23:18:07.641Z,9.30
2018-11-29T23:20:36.416Z,9.28
2018-11-29T23:23:05.022Z,9.31
2018-11-29T23:25:33.541Z,9.28
2018-11-29T23:28:02.102Z,9.28
2018-11-29T23:30:30.620Z,9.27
2018-11-29T23:32:59.260Z,9.24
2018-11-29T23:35:27.780Z,9.21
2018-11-29T23:37:56.302Z,9.23
2018-11-29T23:40:24.817Z,9.23
2018-11-29T23:42:53.357Z,9.20
2018-11-29T23:45:21.876Z,9.23
2018-11-29T23:47:50.402Z,9.22
2018-11-29T23:50:19.390Z,9.21
2018-11-29T23:52:48.032Z,9.22
2018-11-29T23:55:19.905Z,9.27
2018-11-29T23:57:48.440Z,9.29
